logo
Search for airport 
image banner adimage banner adimage banner ad
image banner ad

1VT8 - Mortimer Brown Landing

Located in Castleton, United States

ICAO - 1VT8, IATA -

Data provided by Airmate  

General information

Coordinates: N43°39'58" W73°9'58"
Elevation is 900 feet MSL.
 
View others Airports in Vermont

Operational data

Special qualification required
Current time UTC:
Current local time:
METAR: KRUT 140356Z AUTO 33005KT 10SM -RA BKN008 OVC021 A2972 RMK AO2 SLPNO P0002 FZRANO $
TAF: KRUT 132332Z 1400/1424 29008KT P6SM -RA BKN024 OVC035 FM140500 28007KT P6SM BKN029 OVC035 FM140700 27007KT P6SM BKN035 FM141000 26007KT P6SM SCT050 FM141600 24008KT P6SM VCSH BKN070 FM142100 VRB04KT P6SM -SHRA OVC017
View NOTAMs / SUP AIP / TFR affecting this airport [VIEW]
Communications frequencies: [VIEW]

Runways:

RWY identifierQFULength (ft)Width (ft)SurfaceLDA (ft)
18165080GRASS
36165080GRASS

Airport contact information

Address: Castleton United States

Satellite view of 1VT8